sensor_id;sensor_type;location;lat;lon;timestamp;P1;durP1;ratioP1;P2;durP2;ratioP2
76900;SDS011;65859;43.020;25.096;2024-02-21T00:00:34;47.95;;;27.02;;
76900;SDS011;65859;43.020;25.096;2024-02-21T00:03:03;46.70;;;29.02;;
76900;SDS011;65859;43.020;25.096;2024-02-21T00:05:30;51.10;;;30.02;;
76900;SDS011;65859;43.020;25.096;2024-02-21T00:07:58;71.82;;;40.90;;
76900;SDS011;65859;43.020;25.096;2024-02-21T00:10:25;74.13;;;40.80;;
76900;SDS011;65859;43.020;25.096;2024-02-21T00:12:51;59.10;;;31.63;;
76900;SDS011;65859;43.020;25.096;2024-02-21T00:15:18;51.20;;;29.38;;
76900;SDS011;65859;43.020;25.096;2024-02-21T00:17:44;52.60;;;30.27;;
76900;SDS011;65859;43.020;25.096;2024-02-21T00:20:11;56.38;;;31.65;;
76900;SDS011;65859;43.020;25.096;2024-02-21T00:22:38;54.30;;;31.40;;
76900;SDS011;65859;43.020;25.096;2024-02-21T00:25:04;50.65;;;29.52;;
76900;SDS011;65859;43.020;25.096;2024-02-21T00:27:31;53.38;;;29.75;;
76900;SDS011;65859;43.020;25.096;2024-02-21T00:29:57;50.38;;;28.88;;
76900;SDS011;65859;43.020;25.096;2024-02-21T00:32:24;52.33;;;29.98;;
76900;SDS011;65859;43.020;25.096;2024-02-21T00:34:50;49.75;;;28.20;;
76900;SDS011;65859;43.020;25.096;2024-02-21T00:37:16;47.15;;;27.52;;
76900;SDS011;65859;43.020;25.096;2024-02-21T00:39:42;55.80;;;29.35;;
76900;SDS011;65859;43.020;25.096;2024-02-21T00:42:09;48.83;;;27.67;;
76900;SDS011;65859;43.020;25.096;2024-02-21T00:44:35;51.22;;;27.65;;
76900;SDS011;65859;43.020;25.096;2024-02-21T00:47:01;46.70;;;27.35;;
76900;SDS011;65859;43.020;25.096;2024-02-21T00:49:27;45.95;;;27.20;;
76900;SDS011;65859;43.020;25.096;2024-02-21T00:51:55;44.70;;;25.77;;
76900;SDS011;65859;43.020;25.096;2024-02-21T00:54:21;45.35;;;25.98;;
76900;SDS011;65859;43.020;25.096;2024-02-21T00:56:48;40.58;;;24.10;;
76900;SDS011;65859;43.020;25.096;2024-02-21T00:59:14;38.33;;;21.95;;
76900;SDS011;65859;43.020;25.096;2024-02-21T01:01:40;38.03;;;21.88;;
76900;SDS011;65859;43.020;25.096;2024-02-21T01:04:08;39.83;;;24.92;;
76900;SDS011;65859;43.020;25.096;2024-02-21T01:06:34;36.67;;;22.45;;
76900;SDS011;65859;43.020;25.096;2024-02-21T01:09:00;36.28;;;20.60;;
76900;SDS011;65859;43.020;25.096;2024-02-21T01:11:27;34.50;;;20.52;;
76900;SDS011;65859;43.020;25.096;2024-02-21T01:13:53;46.83;;;21.88;;
76900;SDS011;65859;43.020;25.096;2024-02-21T01:16:20;34.13;;;20.75;;
76900;SDS011;65859;43.020;25.096;2024-02-21T01:18:46;34.42;;;21.13;;
76900;SDS011;65859;43.020;25.096;2024-02-21T01:21:12;42.72;;;22.70;;
76900;SDS011;65859;43.020;25.096;2024-02-21T01:23:40;49.95;;;26.08;;
76900;SDS011;65859;43.020;25.096;2024-02-21T01:26:06;37.58;;;23.23;;
76900;SDS011;65859;43.020;25.096;2024-02-21T01:28:33;62.97;;;25.75;;
76900;SDS011;65859;43.020;25.096;2024-02-21T01:31:00;44.53;;;26.55;;
76900;SDS011;65859;43.020;25.096;2024-02-21T01:33:27;47.50;;;26.45;;
76900;SDS011;65859;43.020;25.096;2024-02-21T01:35:55;42.08;;;26.38;;
76900;SDS011;65859;43.020;25.096;2024-02-21T01:38:21;48.20;;;25.33;;
76900;SDS011;65859;43.020;25.096;2024-02-21T01:40:48;52.42;;;28.98;;
76900;SDS011;65859;43.020;25.096;2024-02-21T01:43:17;64.07;;;34.05;;
76900;SDS011;65859;43.020;25.096;2024-02-21T01:45:49;53.47;;;30.27;;
76900;SDS011;65859;43.020;25.096;2024-02-21T01:48:17;79.50;;;30.13;;
76900;SDS011;65859;43.020;25.096;2024-02-21T01:50:44;47.47;;;28.63;;
76900;SDS011;65859;43.020;25.096;2024-02-21T01:53:11;49.63;;;27.70;;
76900;SDS011;65859;43.020;25.096;2024-02-21T01:55:45;54.20;;;29.90;;
76900;SDS011;65859;43.020;25.096;2024-02-21T01:58:13;50.60;;;28.10;;
76900;SDS011;65859;43.020;25.096;2024-02-21T02:00:43;55.33;;;29.75;;
76900;SDS011;65859;43.020;25.096;2024-02-21T02:03:10;49.42;;;29.42;;
76900;SDS011;65859;43.020;25.096;2024-02-21T02:08:12;52.70;;;31.50;;
76900;SDS011;65859;43.020;25.096;2024-02-21T02:10:39;49.40;;;29.20;;
76900;SDS011;65859;43.020;25.096;2024-02-21T02:13:06;51.88;;;30.90;;
76900;SDS011;65859;43.020;25.096;2024-02-21T02:15:40;47.75;;;29.08;;
76900;SDS011;65859;43.020;25.096;2024-02-21T02:18:10;49.17;;;30.80;;
76900;SDS011;65859;43.020;25.096;2024-02-21T02:20:37;47.85;;;29.90;;
76900;SDS011;65859;43.020;25.096;2024-02-21T02:26:00;54.67;;;31.67;;
76900;SDS011;65859;43.020;25.096;2024-02-21T02:28:26;55.30;;;32.33;;
76900;SDS011;65859;43.020;25.096;2024-02-21T02:30:53;61.22;;;34.28;;
76900;SDS011;65859;43.020;25.096;2024-02-21T02:33:19;57.05;;;34.78;;
76900;SDS011;65859;43.020;25.096;2024-02-21T02:35:46;69.68;;;33.13;;
76900;SDS011;65859;43.020;25.096;2024-02-21T02:38:12;61.25;;;33.88;;
76900;SDS011;65859;43.020;25.096;2024-02-21T02:40:38;69.82;;;35.95;;
76900;SDS011;65859;43.020;25.096;2024-02-21T02:43:08;64.35;;;34.88;;
76900;SDS011;65859;43.020;25.096;2024-02-21T02:45:35;53.90;;;33.05;;
76900;SDS011;65859;43.020;25.096;2024-02-21T02:48:01;58.40;;;33.55;;
76900;SDS011;65859;43.020;25.096;2024-02-21T02:50:31;60.88;;;35.83;;
76900;SDS011;65859;43.020;25.096;2024-02-21T02:52:57;63.55;;;36.58;;
76900;SDS011;65859;43.020;25.096;2024-02-21T02:55:23;58.55;;;35.80;;
76900;SDS011;65859;43.020;25.096;2024-02-21T02:57:52;60.33;;;36.50;;
76900;SDS011;65859;43.020;25.096;2024-02-21T03:00:18;79.90;;;38.90;;
76900;SDS011;65859;43.020;25.096;2024-02-21T03:02:45;89.85;;;38.63;;
76900;SDS011;65859;43.020;25.096;2024-02-21T03:05:17;73.05;;;42.28;;
76900;SDS011;65859;43.020;25.096;2024-02-21T03:07:45;75.88;;;41.30;;
76900;SDS011;65859;43.020;25.096;2024-02-21T03:10:13;98.35;;;44.72;;
76900;SDS011;65859;43.020;25.096;2024-02-21T03:12:41;81.50;;;42.45;;
76900;SDS011;65859;43.020;25.096;2024-02-21T03:15:08;78.95;;;41.28;;
76900;SDS011;65859;43.020;25.096;2024-02-21T03:17:34;69.25;;;37.90;;
76900;SDS011;65859;43.020;25.096;2024-02-21T03:20:01;52.65;;;31.15;;
76900;SDS011;65859;43.020;25.096;2024-02-21T03:22:34;86.32;;;32.78;;
76900;SDS011;65859;43.020;25.096;2024-02-21T03:25:00;55.80;;;30.90;;
76900;SDS011;65859;43.020;25.096;2024-02-21T03:27:27;161.00;;;32.72;;
76900;SDS011;65859;43.020;25.096;2024-02-21T03:29:54;161.38;;;34.05;;
76900;SDS011;65859;43.020;25.096;2024-02-21T03:32:20;63.20;;;29.92;;
76900;SDS011;65859;43.020;25.096;2024-02-21T03:34:47;67.95;;;31.27;;
76900;SDS011;65859;43.020;25.096;2024-02-21T03:37:13;63.42;;;29.17;;
76900;SDS011;65859;43.020;25.096;2024-02-21T03:39:39;75.88;;;29.83;;
76900;SDS011;65859;43.020;25.096;2024-02-21T03:42:06;63.53;;;29.40;;
76900;SDS011;65859;43.020;25.096;2024-02-21T03:44:32;180.80;;;31.92;;
76900;SDS011;65859;43.020;25.096;2024-02-21T03:46:59;94.88;;;32.95;;
76900;SDS011;65859;43.020;25.096;2024-02-21T03:49:26;64.97;;;32.60;;
76900;SDS011;65859;43.020;25.096;2024-02-21T03:51:52;60.00;;;31.45;;
76900;SDS011;65859;43.020;25.096;2024-02-21T03:54:19;54.13;;;30.77;;
76900;SDS011;65859;43.020;25.096;2024-02-21T03:56:45;67.25;;;29.17;;
76900;SDS011;65859;43.020;25.096;2024-02-21T03:59:14;60.30;;;29.48;;
76900;SDS011;65859;43.020;25.096;2024-02-21T04:01:42;131.80;;;31.45;;
76900;SDS011;65859;43.020;25.096;2024-02-21T04:04:09;79.97;;;30.95;;
76900;SDS011;65859;43.020;25.096;2024-02-21T04:06:35;56.45;;;30.83;;
76900;SDS011;65859;43.020;25.096;2024-02-21T04:09:01;50.90;;;29.50;;
76900;SDS011;65859;43.020;25.096;2024-02-21T04:11:28;73.85;;;33.15;;
76900;SDS011;65859;43.020;25.096;2024-02-21T04:13:54;57.97;;;30.73;;
76900;SDS011;65859;43.020;25.096;2024-02-21T04:16:21;89.50;;;32.55;;
76900;SDS011;65859;43.020;25.096;2024-02-21T04:18:47;91.55;;;31.88;;
76900;SDS011;65859;43.020;25.096;2024-02-21T04:21:14;82.20;;;32.83;;
76900;SDS011;65859;43.020;25.096;2024-02-21T04:23:42;90.85;;;31.27;;
76900;SDS011;65859;43.020;25.096;2024-02-21T04:26:08;66.90;;;33.60;;
76900;SDS011;65859;43.020;25.096;2024-02-21T04:28:35;64.72;;;31.23;;
76900;SDS011;65859;43.020;25.096;2024-02-21T04:31:01;64.60;;;32.10;;
76900;SDS011;65859;43.020;25.096;2024-02-21T04:33:28;61.13;;;32.05;;
76900;SDS011;65859;43.020;25.096;2024-02-21T04:35:55;66.57;;;33.55;;
76900;SDS011;65859;43.020;25.096;2024-02-21T04:38:21;58.55;;;33.78;;
76900;SDS011;65859;43.020;25.096;2024-02-21T04:40:47;64.57;;;35.70;;
76900;SDS011;65859;43.020;25.096;2024-02-21T04:43:33;72.20;;;37.05;;
76900;SDS011;65859;43.020;25.096;2024-02-21T04:45:59;79.43;;;41.05;;
76900;SDS011;65859;43.020;25.096;2024-02-21T04:48:25;63.38;;;39.45;;
76900;SDS011;65859;43.020;25.096;2024-02-21T04:50:51;55.47;;;35.63;;
76900;SDS011;65859;43.020;25.096;2024-02-21T04:53:18;67.28;;;32.22;;
76900;SDS011;65859;43.020;25.096;2024-02-21T04:55:44;73.65;;;32.45;;
76900;SDS011;65859;43.020;25.096;2024-02-21T04:58:11;51.50;;;29.92;;
76900;SDS011;65859;43.020;25.096;2024-02-21T05:00:37;49.00;;;29.80;;
76900;SDS011;65859;43.020;25.096;2024-02-21T05:03:03;48.53;;;27.98;;
76900;SDS011;65859;43.020;25.096;2024-02-21T05:05:31;46.03;;;26.20;;
76900;SDS011;65859;43.020;25.096;2024-02-21T05:07:57;45.85;;;26.80;;
76900;SDS011;65859;43.020;25.096;2024-02-21T05:10:23;54.55;;;26.75;;
76900;SDS011;65859;43.020;25.096;2024-02-21T05:12:50;43.88;;;26.17;;
76900;SDS011;65859;43.020;25.096;2024-02-21T05:15:16;74.35;;;33.53;;
76900;SDS011;65859;43.020;25.096;2024-02-21T05:17:42;66.45;;;31.50;;
76900;SDS011;65859;43.020;25.096;2024-02-21T05:20:09;49.28;;;29.58;;
76900;SDS011;65859;43.020;25.096;2024-02-21T05:22:35;51.58;;;29.50;;
76900;SDS011;65859;43.020;25.096;2024-02-21T05:25:02;62.92;;;34.40;;
76900;SDS011;65859;43.020;25.096;2024-02-21T05:27:28;56.50;;;32.90;;
76900;SDS011;65859;43.020;25.096;2024-02-21T05:29:54;51.88;;;29.92;;
76900;SDS011;65859;43.020;25.096;2024-02-21T05:32:21;49.05;;;30.17;;
76900;SDS011;65859;43.020;25.096;2024-02-21T05:34:50;60.55;;;31.48;;
76900;SDS011;65859;43.020;25.096;2024-02-21T05:37:18;62.35;;;28.17;;
76900;SDS011;65859;43.020;25.096;2024-02-21T05:39:44;65.93;;;27.38;;
76900;SDS011;65859;43.020;25.096;2024-02-21T05:42:10;76.55;;;33.42;;
76900;SDS011;65859;43.020;25.096;2024-02-21T05:44:36;75.20;;;32.45;;
76900;SDS011;65859;43.020;25.096;2024-02-21T05:47:03;100.03;;;39.92;;
76900;SDS011;65859;43.020;25.096;2024-02-21T05:49:29;83.45;;;38.25;;
76900;SDS011;65859;43.020;25.096;2024-02-21T05:51:55;60.83;;;31.55;;
76900;SDS011;65859;43.020;25.096;2024-02-21T05:54:22;75.15;;;32.45;;
76900;SDS011;65859;43.020;25.096;2024-02-21T05:56:48;87.22;;;40.47;;
76900;SDS011;65859;43.020;25.096;2024-02-21T05:59:15;70.55;;;34.83;;
76900;SDS011;65859;43.020;25.096;2024-02-21T06:01:41;66.93;;;30.55;;
76900;SDS011;65859;43.020;25.096;2024-02-21T06:04:07;69.72;;;32.45;;
76900;SDS011;65859;43.020;25.096;2024-02-21T06:06:34;65.93;;;35.97;;
76900;SDS011;65859;43.020;25.096;2024-02-21T06:09:01;53.40;;;28.65;;
76900;SDS011;65859;43.020;25.096;2024-02-21T06:11:28;57.20;;;32.53;;
76900;SDS011;65859;43.020;25.096;2024-02-21T06:13:54;55.10;;;31.13;;
76900;SDS011;65859;43.020;25.096;2024-02-21T06:16:21;53.95;;;30.23;;
76900;SDS011;65859;43.020;25.096;2024-02-21T06:18:47;67.00;;;35.25;;
76900;SDS011;65859;43.020;25.096;2024-02-21T06:21:13;72.75;;;38.35;;
76900;SDS011;65859;43.020;25.096;2024-02-21T06:23:41;78.30;;;45.50;;
76900;SDS011;65859;43.020;25.096;2024-02-21T06:26:08;73.00;;;42.58;;
76900;SDS011;65859;43.020;25.096;2024-02-21T06:28:34;64.68;;;36.25;;
76900;SDS011;65859;43.020;25.096;2024-02-21T06:31:01;64.55;;;34.83;;
76900;SDS011;65859;43.020;25.096;2024-02-21T06:33:27;59.65;;;34.42;;
76900;SDS011;65859;43.020;25.096;2024-02-21T06:35:54;55.42;;;33.40;;
76900;SDS011;65859;43.020;25.096;2024-02-21T06:38:20;54.67;;;31.30;;
76900;SDS011;65859;43.020;25.096;2024-02-21T06:40:47;52.70;;;30.27;;
76900;SDS011;65859;43.020;25.096;2024-02-21T06:43:17;61.15;;;30.65;;
76900;SDS011;65859;43.020;25.096;2024-02-21T06:45:44;57.30;;;31.55;;
76900;SDS011;65859;43.020;25.096;2024-02-21T06:48:12;57.72;;;31.85;;
76900;SDS011;65859;43.020;25.096;2024-02-21T06:50:39;60.65;;;32.90;;
76900;SDS011;65859;43.020;25.096;2024-02-21T06:53:06;56.95;;;31.33;;
76900;SDS011;65859;43.020;25.096;2024-02-21T06:55:32;55.60;;;31.23;;
76900;SDS011;65859;43.020;25.096;2024-02-21T06:57:58;53.70;;;30.90;;
76900;SDS011;65859;43.020;25.096;2024-02-21T07:00:24;58.22;;;31.83;;
76900;SDS011;65859;43.020;25.096;2024-02-21T07:02:51;59.47;;;34.10;;
76900;SDS011;65859;43.020;25.096;2024-02-21T07:05:17;62.60;;;35.53;;
76900;SDS011;65859;43.020;25.096;2024-02-21T07:07:44;59.88;;;33.20;;
76900;SDS011;65859;43.020;25.096;2024-02-21T07:10:10;64.88;;;35.78;;
76900;SDS011;65859;43.020;25.096;2024-02-21T07:12:38;60.10;;;33.92;;
76900;SDS011;65859;43.020;25.096;2024-02-21T07:15:07;57.92;;;33.15;;
76900;SDS011;65859;43.020;25.096;2024-02-21T07:17:33;52.10;;;32.97;;
76900;SDS011;65859;43.020;25.096;2024-02-21T07:19:59;54.65;;;32.63;;
76900;SDS011;65859;43.020;25.096;2024-02-21T07:22:26;50.83;;;31.92;;
76900;SDS011;65859;43.020;25.096;2024-02-21T07:24:52;49.38;;;29.58;;
76900;SDS011;65859;43.020;25.096;2024-02-21T07:27:19;51.53;;;33.08;;
76900;SDS011;65859;43.020;25.096;2024-02-21T07:29:45;48.85;;;30.83;;
76900;SDS011;65859;43.020;25.096;2024-02-21T07:32:13;43.60;;;28.15;;
76900;SDS011;65859;43.020;25.096;2024-02-21T07:34:40;42.83;;;28.23;;
76900;SDS011;65859;43.020;25.096;2024-02-21T07:37:06;45.00;;;29.58;;
76900;SDS011;65859;43.020;25.096;2024-02-21T07:39:35;41.83;;;27.30;;
76900;SDS011;65859;43.020;25.096;2024-02-21T07:42:05;43.03;;;27.80;;
76900;SDS011;65859;43.020;25.096;2024-02-21T07:44:31;56.38;;;31.65;;
76900;SDS011;65859;43.020;25.096;2024-02-21T07:46:59;48.28;;;33.38;;
76900;SDS011;65859;43.020;25.096;2024-02-21T07:49:26;45.65;;;33.00;;
76900;SDS011;65859;43.020;25.096;2024-02-21T07:51:52;48.28;;;32.20;;
76900;SDS011;65859;43.020;25.096;2024-02-21T07:54:18;52.38;;;31.90;;
76900;SDS011;65859;43.020;25.096;2024-02-21T07:56:45;49.60;;;33.97;;
76900;SDS011;65859;43.020;25.096;2024-02-21T07:59:12;57.67;;;35.72;;
76900;SDS011;65859;43.020;25.096;2024-02-21T08:01:39;56.95;;;36.38;;
76900;SDS011;65859;43.020;25.096;2024-02-21T08:04:05;55.08;;;37.63;;
76900;SDS011;65859;43.020;25.096;2024-02-21T08:06:31;52.92;;;35.80;;
76900;SDS011;65859;43.020;25.096;2024-02-21T08:08:58;53.70;;;35.83;;
76900;SDS011;65859;43.020;25.096;2024-02-21T08:11:25;57.03;;;34.95;;
76900;SDS011;65859;43.020;25.096;2024-02-21T08:13:51;50.97;;;31.48;;
76900;SDS011;65859;43.020;25.096;2024-02-21T08:16:19;50.67;;;33.63;;
76900;SDS011;65859;43.020;25.096;2024-02-21T08:18:45;52.72;;;32.45;;
76900;SDS011;65859;43.020;25.096;2024-02-21T08:21:11;56.33;;;36.22;;
76900;SDS011;65859;43.020;25.096;2024-02-21T08:23:38;48.95;;;33.22;;
76900;SDS011;65859;43.020;25.096;2024-02-21T08:26:04;50.00;;;31.80;;
76900;SDS011;65859;43.020;25.096;2024-02-21T08:28:31;46.38;;;30.33;;
76900;SDS011;65859;43.020;25.096;2024-02-21T08:30:58;52.70;;;32.55;;
76900;SDS011;65859;43.020;25.096;2024-02-21T08:33:24;45.22;;;32.25;;
76900;SDS011;65859;43.020;25.096;2024-02-21T08:35:51;45.88;;;32.47;;
76900;SDS011;65859;43.020;25.096;2024-02-21T08:38:17;49.10;;;32.10;;
76900;SDS011;65859;43.020;25.096;2024-02-21T08:40:43;45.13;;;29.55;;
76900;SDS011;65859;43.020;25.096;2024-02-21T08:43:10;47.70;;;32.28;;
76900;SDS011;65859;43.020;25.096;2024-02-21T08:45:37;52.15;;;34.70;;
76900;SDS011;65859;43.020;25.096;2024-02-21T08:48:04;57.35;;;37.05;;
76900;SDS011;65859;43.020;25.096;2024-02-21T08:50:31;52.10;;;32.55;;
76900;SDS011;65859;43.020;25.096;2024-02-21T08:52:57;42.72;;;31.45;;
76900;SDS011;65859;43.020;25.096;2024-02-21T08:55:24;27.88;;;20.80;;
76900;SDS011;65859;43.020;25.096;2024-02-21T08:57:50;26.95;;;19.98;;
76900;SDS011;65859;43.020;25.096;2024-02-21T09:00:16;26.20;;;19.13;;
76900;SDS011;65859;43.020;25.096;2024-02-21T09:02:42;24.52;;;17.85;;
76900;SDS011;65859;43.020;25.096;2024-02-21T09:05:09;22.80;;;17.05;;
76900;SDS011;65859;43.020;25.096;2024-02-21T09:07:35;17.40;;;13.68;;
76900;SDS011;65859;43.020;25.096;2024-02-21T09:10:02;17.98;;;13.32;;
76900;SDS011;65859;43.020;25.096;2024-02-21T09:12:28;15.25;;;12.85;;
76900;SDS011;65859;43.020;25.096;2024-02-21T09:14:54;17.20;;;12.70;;
76900;SDS011;65859;43.020;25.096;2024-02-21T09:17:21;15.60;;;12.05;;
76900;SDS011;65859;43.020;25.096;2024-02-21T09:19:50;15.77;;;12.35;;
76900;SDS011;65859;43.020;25.096;2024-02-21T09:22:17;14.27;;;10.85;;
76900;SDS011;65859;43.020;25.096;2024-02-21T09:24:43;15.98;;;12.02;;
76900;SDS011;65859;43.020;25.096;2024-02-21T09:27:10;16.35;;;11.88;;
76900;SDS011;65859;43.020;25.096;2024-02-21T09:29:36;17.58;;;11.65;;
76900;SDS011;65859;43.020;25.096;2024-02-21T09:32:04;19.08;;;12.50;;
76900;SDS011;65859;43.020;25.096;2024-02-21T09:34:31;16.15;;;11.52;;
76900;SDS011;65859;43.020;25.096;2024-02-21T09:36:57;14.52;;;10.07;;
76900;SDS011;65859;43.020;25.096;2024-02-21T09:39:23;15.80;;;10.20;;
76900;SDS011;65859;43.020;25.096;2024-02-21T09:41:50;18.00;;;10.75;;
76900;SDS011;65859;43.020;25.096;2024-02-21T09:44:23;17.73;;;11.30;;
76900;SDS011;65859;43.020;25.096;2024-02-21T09:46:55;16.90;;;10.90;;
76900;SDS011;65859;43.020;25.096;2024-02-21T09:49:32;18.20;;;11.38;;
76900;SDS011;65859;43.020;25.096;2024-02-21T09:52:02;13.23;;;9.70;;
76900;SDS011;65859;43.020;25.096;2024-02-21T09:54:32;15.27;;;10.10;;
76900;SDS011;65859;43.020;25.096;2024-02-21T09:56:59;13.25;;;10.00;;
76900;SDS011;65859;43.020;25.096;2024-02-21T09:59:30;13.73;;;10.18;;
76900;SDS011;65859;43.020;25.096;2024-02-21T10:01:58;12.95;;;8.93;;
76900;SDS011;65859;43.020;25.096;2024-02-21T10:04:28;11.25;;;8.60;;
76900;SDS011;65859;43.020;25.096;2024-02-21T10:06:54;10.65;;;8.65;;
76900;SDS011;65859;43.020;25.096;2024-02-21T10:09:24;11.82;;;9.23;;
76900;SDS011;65859;43.020;25.096;2024-02-21T10:12:13;19.45;;;10.18;;
76900;SDS011;65859;43.020;25.096;2024-02-21T10:14:42;12.20;;;8.15;;
76900;SDS011;65859;43.020;25.096;2024-02-21T10:17:14;10.02;;;7.75;;
76900;SDS011;65859;43.020;25.096;2024-02-21T10:19:43;10.65;;;8.20;;
76900;SDS011;65859;43.020;25.096;2024-02-21T10:22:11;11.68;;;8.07;;
76900;SDS011;65859;43.020;25.096;2024-02-21T10:24:37;10.77;;;7.53;;
76900;SDS011;65859;43.020;25.096;2024-02-21T10:27:06;11.70;;;7.82;;
76900;SDS011;65859;43.020;25.096;2024-02-21T10:29:34;11.45;;;8.32;;
76900;SDS011;65859;43.020;25.096;2024-02-21T10:32:18;10.05;;;7.50;;
76900;SDS011;65859;43.020;25.096;2024-02-21T10:34:45;8.75;;;7.15;;
76900;SDS011;65859;43.020;25.096;2024-02-21T10:37:16;10.68;;;7.95;;
76900;SDS011;65859;43.020;25.096;2024-02-21T10:39:43;11.27;;;7.72;;
76900;SDS011;65859;43.020;25.096;2024-02-21T10:42:12;10.23;;;6.80;;
76900;SDS011;65859;43.020;25.096;2024-02-21T10:44:42;12.68;;;7.35;;
76900;SDS011;65859;43.020;25.096;2024-02-21T10:47:11;10.80;;;8.02;;
76900;SDS011;65859;43.020;25.096;2024-02-21T10:49:39;20.80;;;15.13;;
76900;SDS011;65859;43.020;25.096;2024-02-21T10:52:32;9.63;;;7.93;;
76900;SDS011;65859;43.020;25.096;2024-02-21T10:55:31;10.43;;;7.35;;
76900;SDS011;65859;43.020;25.096;2024-02-21T10:58:05;8.57;;;6.80;;
76900;SDS011;65859;43.020;25.096;2024-02-21T11:00:32;7.68;;;6.85;;
76900;SDS011;65859;43.020;25.096;2024-02-21T11:03:00;9.25;;;6.53;;
76900;SDS011;65859;43.020;25.096;2024-02-21T11:05:26;10.70;;;7.18;;
76900;SDS011;65859;43.020;25.096;2024-02-21T11:07:53;8.68;;;6.68;;
76900;SDS011;65859;43.020;25.096;2024-02-21T11:10:23;16.02;;;8.63;;
76900;SDS011;65859;43.020;25.096;2024-02-21T11:12:54;12.35;;;8.65;;
76900;SDS011;65859;43.020;25.096;2024-02-21T11:15:36;7.72;;;6.93;;
76900;SDS011;65859;43.020;25.096;2024-02-21T11:18:02;10.23;;;7.15;;
76900;SDS011;65859;43.020;25.096;2024-02-21T11:20:32;7.07;;;6.22;;
76900;SDS011;65859;43.020;25.096;2024-02-21T11:23:02;6.65;;;5.95;;
76900;SDS011;65859;43.020;25.096;2024-02-21T11:25:30;8.70;;;5.47;;
76900;SDS011;65859;43.020;25.096;2024-02-21T11:28:02;8.32;;;6.28;;
76900;SDS011;65859;43.020;25.096;2024-02-21T11:30:33;6.60;;;5.80;;
76900;SDS011;65859;43.020;25.096;2024-02-21T11:33:03;7.97;;;6.03;;
76900;SDS011;65859;43.020;25.096;2024-02-21T11:35:32;8.20;;;7.40;;
76900;SDS011;65859;43.020;25.096;2024-02-21T11:38:11;9.30;;;6.50;;
76900;SDS011;65859;43.020;25.096;2024-02-21T11:40:43;7.88;;;6.32;;
76900;SDS011;65859;43.020;25.096;2024-02-21T11:43:10;11.25;;;8.10;;
76900;SDS011;65859;43.020;25.096;2024-02-21T11:45:37;12.45;;;8.55;;
76900;SDS011;65859;43.020;25.096;2024-02-21T11:48:07;19.80;;;9.13;;
76900;SDS011;65859;43.020;25.096;2024-02-21T11:50:34;11.75;;;7.25;;
76900;SDS011;65859;43.020;25.096;2024-02-21T11:53:05;15.80;;;8.90;;
76900;SDS011;65859;43.020;25.096;2024-02-21T11:55:32;11.93;;;7.40;;
76900;SDS011;65859;43.020;25.096;2024-02-21T11:57:59;9.23;;;6.35;;
76900;SDS011;65859;43.020;25.096;2024-02-21T12:00:25;11.07;;;6.72;;
76900;SDS011;65859;43.020;25.096;2024-02-21T12:02:52;10.57;;;7.07;;
76900;SDS011;65859;43.020;25.096;2024-02-21T12:05:20;11.20;;;7.05;;
76900;SDS011;65859;43.020;25.096;2024-02-21T12:07:47;12.65;;;7.10;;
76900;SDS011;65859;43.020;25.096;2024-02-21T12:10:13;10.50;;;6.63;;
76900;SDS011;65859;43.020;25.096;2024-02-21T12:12:40;9.35;;;6.15;;
76900;SDS011;65859;43.020;25.096;2024-02-21T12:15:07;12.70;;;8.27;;
76900;SDS011;65859;43.020;25.096;2024-02-21T12:17:37;14.68;;;8.63;;
76900;SDS011;65859;43.020;25.096;2024-02-21T12:20:07;10.93;;;7.72;;
76900;SDS011;65859;43.020;25.096;2024-02-21T12:22:39;10.43;;;7.65;;
76900;SDS011;65859;43.020;25.096;2024-02-21T12:25:18;9.90;;;7.05;;
76900;SDS011;65859;43.020;25.096;2024-02-21T12:27:46;8.60;;;6.63;;
76900;SDS011;65859;43.020;25.096;2024-02-21T12:30:14;9.45;;;7.07;;
76900;SDS011;65859;43.020;25.096;2024-02-21T12:32:41;8.82;;;5.72;;
76900;SDS011;65859;43.020;25.096;2024-02-21T12:35:07;7.35;;;6.30;;
76900;SDS011;65859;43.020;25.096;2024-02-21T12:37:34;10.50;;;6.82;;
76900;SDS011;65859;43.020;25.096;2024-02-21T12:40:00;12.65;;;10.55;;
76900;SDS011;65859;43.020;25.096;2024-02-21T12:42:32;10.65;;;7.80;;
76900;SDS011;65859;43.020;25.096;2024-02-21T12:44:59;9.07;;;6.82;;
76900;SDS011;65859;43.020;25.096;2024-02-21T12:47:25;10.40;;;8.57;;
76900;SDS011;65859;43.020;25.096;2024-02-21T12:49:52;13.20;;;10.38;;
76900;SDS011;65859;43.020;25.096;2024-02-21T12:52:18;30.63;;;22.40;;
76900;SDS011;65859;43.020;25.096;2024-02-21T12:54:45;14.05;;;11.57;;
76900;SDS011;65859;43.020;25.096;2024-02-21T12:57:12;10.95;;;9.18;;
76900;SDS011;65859;43.020;25.096;2024-02-21T12:59:40;16.88;;;10.90;;
76900;SDS011;65859;43.020;25.096;2024-02-21T13:02:06;21.60;;;14.60;;
76900;SDS011;65859;43.020;25.096;2024-02-21T13:04:33;15.85;;;10.10;;
76900;SDS011;65859;43.020;25.096;2024-02-21T13:07:00;15.30;;;11.00;;
76900;SDS011;65859;43.020;25.096;2024-02-21T13:09:26;13.77;;;9.43;;
76900;SDS011;65859;43.020;25.096;2024-02-21T13:11:52;10.75;;;7.30;;
76900;SDS011;65859;43.020;25.096;2024-02-21T13:14:19;13.13;;;9.13;;
76900;SDS011;65859;43.020;25.096;2024-02-21T13:16:46;8.50;;;6.60;;
76900;SDS011;65859;43.020;25.096;2024-02-21T13:19:12;15.63;;;11.30;;
76900;SDS011;65859;43.020;25.096;2024-02-21T13:21:42;12.32;;;9.27;;
76900;SDS011;65859;43.020;25.096;2024-02-21T13:24:08;11.43;;;8.25;;
76900;SDS011;65859;43.020;25.096;2024-02-21T13:26:34;7.03;;;5.47;;
76900;SDS011;65859;43.020;25.096;2024-02-21T13:29:02;4.18;;;3.50;;
76900;SDS011;65859;43.020;25.096;2024-02-21T13:31:29;6.57;;;5.47;;
76900;SDS011;65859;43.020;25.096;2024-02-21T13:33:55;8.57;;;6.25;;
76900;SDS011;65859;43.020;25.096;2024-02-21T13:36:22;7.13;;;5.43;;
76900;SDS011;65859;43.020;25.096;2024-02-21T13:38:48;8.02;;;5.28;;
76900;SDS011;65859;43.020;25.096;2024-02-21T13:41:16;6.75;;;5.25;;
76900;SDS011;65859;43.020;25.096;2024-02-21T13:43:43;7.88;;;5.15;;
76900;SDS011;65859;43.020;25.096;2024-02-21T13:46:11;22.35;;;12.55;;
76900;SDS011;65859;43.020;25.096;2024-02-21T13:48:38;20.60;;;13.95;;
76900;SDS011;65859;43.020;25.096;2024-02-21T13:51:04;36.97;;;21.05;;
76900;SDS011;65859;43.020;25.096;2024-02-21T13:53:30;16.42;;;9.02;;
76900;SDS011;65859;43.020;25.096;2024-02-21T13:55:57;22.73;;;12.48;;
76900;SDS011;65859;43.020;25.096;2024-02-21T13:58:23;11.20;;;8.75;;
76900;SDS011;65859;43.020;25.096;2024-02-21T14:00:51;8.80;;;6.22;;
76900;SDS011;65859;43.020;25.096;2024-02-21T14:03:18;33.03;;;17.42;;
76900;SDS011;65859;43.020;25.096;2024-02-21T14:05:45;24.77;;;17.02;;
76900;SDS011;65859;43.020;25.096;2024-02-21T14:08:13;13.68;;;10.23;;
76900;SDS011;65859;43.020;25.096;2024-02-21T14:10:39;20.88;;;13.73;;
76900;SDS011;65859;43.020;25.096;2024-02-21T14:13:06;20.67;;;14.77;;
76900;SDS011;65859;43.020;25.096;2024-02-21T14:15:32;18.80;;;12.15;;
76900;SDS011;65859;43.020;25.096;2024-02-21T14:17:58;9.75;;;6.88;;
76900;SDS011;65859;43.020;25.096;2024-02-21T14:20:24;29.88;;;16.08;;